Latest Weather Observations for Swan Hill

IDV60801

Issued at 9:02 pm EST Thursday 20 June 2019 (issued every 10 minutes, with the page automatically refreshed every 10 minutes)

About weather observations | Map of weather stations | Latest weather observations for VIC | Other Formats
Station Details ID: 077094 Name: SWAN HILL AERODROME Lat: -35.38 Lon: 143.54 Height: 71.0 m
Data from the previous 72 hours. | See also: Recent months at Swan Hill
Date/Time
EST
Temp
°C
App
Temp
°C
Dew
Point
°C
Rel
Hum
%
Delta-T
°C
Wind Press
QNH
hPa
Press
MSL
hPa
Rain since
9am
mm
Dir  Spd
km/h
Gust
km/h
Spd
kts
Gust
kts
20/09:00pm 3.8 -0.8 1.4 84 0.9 SW 15 15 8 8 1027.4 1027.5 0.0
20/08:30pm 4.3 0.3 0.8 78 1.4 SW 11 13 6 7 1027.2 1027.3 0.0
20/08:00pm 4.7 0.8 1.2 78 1.4 SW 11 13 6 7 1027.1 1027.2 0.0
20/07:30pm 6.7 3.0 2.2 73 1.8 SSW 11 13 6 7 1026.9 1027.0 0.0
20/07:00pm 7.2 3.5 2.5 72 1.9 S 11 13 6 7 1026.7 1026.8 0.0
20/06:30pm 6.8 3.4 2.1 72 1.9 S 9 11 5 6 1026.4 1026.5 0.0
20/06:00pm 7.4 4.0 2.1 69 2.2 S 9 13 5 7 1026.1 1026.2 0.0
20/05:30pm 7.9 5.0 2.4 68 2.3 S 7 11 4 6 1025.8 1025.9 0.0
20/05:00pm 9.3 6.4 2.6 63 2.8 S 7 9 4 5 1025.4 1025.5 0.0
20/04:30pm 10.9 7.6 2.7 57 3.6 SSW 9 15 5 8 1025.4 1025.5 0.0
20/04:00pm 10.8 7.4 1.9 54 3.8 SSW 9 17 5 9 1025.3 1025.4 0.0
20/03:30pm 11.1 7.7 1.9 53 3.9 S 9 17 5 9 1025.1 1025.2 0.0
20/03:00pm 11.3 7.9 1.8 52 4.0 SSW 9 15 5 8 1025.1 1025.2 0.0
20/02:30pm 11.1 7.1 2.7 56 3.6 SW 13 20 7 11 1025.1 1025.2 0.0
20/02:00pm 11.7 7.8 3.2 56 3.7 SW 13 17 7 9 1025.0 1025.1 0.0
20/01:30pm 11.0 8.4 4.2 63 3.0 S 7 11 4 6 1025.3 1025.4 0.0
20/01:00pm 10.6 8.0 4.1 64 2.9 SSE 7 11 4 6 1025.6 1025.7 0.0
20/12:30pm 10.5 8.1 4.4 66 2.7 SSE 6 9 3 5 1025.9 1026.0 0.0
20/12:00pm 9.9 7.9 4.5 69 2.4 SSE 4 7 2 4 1026.4 1026.5 0.0
20/11:30am 9.3 7.8 4.9 74 2.0 SSE 2 7 1 4 1026.9 1027.0 0.0
20/11:00am 8.6 7.4 4.8 77 1.7 CALM 0 0 0 0 1026.9 1027.0 0.0
20/10:30am 8.0 6.4 4.6 79 1.5 SSE 2 6 1 3 1027.1 1027.2 0.0
20/10:00am 7.9 5.4 4.8 81 1.4 SSE 7 9 4 5 1027.0 1027.1 0.0
20/09:30am 7.5 5.3 5.1 85 1.1 SSE 6 9 3 5 1026.8 1026.9 0.0
20/09:00am 6.7 4.4 4.9 88 0.8 SSE 6 7 3 4 1026.6 1026.7 0.0
20/08:30am 6.0 4.7 4.2 88 0.8 CALM 0 6 0 3 1026.5 1026.6 0.0
20/08:00am 5.9 4.6 3.9 87 0.8 CALM 0 0 0 0 1026.5 1026.6 0.0
20/07:30am 6.0 4.3 3.8 86 0.9 SSE 2 6 1 3 1026.2 1026.3 0.0
20/07:00am 6.1 3.4 3.8 85 1.0 SSE 7 9 4 5 1026.0 1026.1 0.0
20/06:30am 6.2 3.5 3.9 85 1.0 SSE 7 9 4 5 1025.9 1026.0 0.0
20/06:00am 6.1 3.4 3.9 86 0.9 SSE 7 9 4 5 1025.5 1025.6 0.0
20/05:30am 6.2 4.9 3.9 85 1.0 CALM 0 0 0 0 1025.4 1025.5 0.0
20/05:00am 6.3 4.9 3.8 84 1.1 CALM 0 0 0 0 1025.4 1025.5 0.0
20/04:30am 6.2 3.7 3.9 85 1.0 SSE 6 7 3 4 1025.4 1025.5 0.0
20/04:00am 6.1 3.4 3.9 86 0.9 SSE 7 9 4 5 1025.5 1025.6 0.0
20/03:30am 6.1 4.0 3.8 85 1.0 SSE 4 7 2 4 1025.6 1025.7 0.0
20/03:00am 5.7 4.3 3.5 86 0.9 CALM 0 4 0 2 1025.8 1025.9 0.0
20/02:30am 5.9 3.2 3.7 86 0.9 SSE 7 9 4 5 1025.7 1025.8 0.0
20/02:00am 5.7 3.1 3.2 84 1.0 SSE 6 7 3 4 1025.8 1025.9 0.0
20/01:30am 5.5 3.3 3.2 85 1.0 SSE 4 9 2 5 1025.9 1026.0 0.0
20/01:00am 5.1 2.0 3.6 90 0.6 SE 9 9 5 5 1026.0 1026.1 0.0
20/12:30am 4.7 2.1 3.2 90 0.6 SE 6 7 3 4 1026.1 1026.2 0.0
20/12:00am 4.2 2.6 2.7 90 0.6 CALM 0 2 0 1 1026.2 1026.3 0.0
 
Date/Time
EST
Temp
°C
App
Temp
°C
Dew
Point
°C
Rel
Hum
%
Delta-T
°C
Wind Press
QNH
hPa
Press
MSL
hPa
Rain since
9am
mm
Dir  Spd
km/h
Gust
km/h
Spd
kts
Gust
kts
19/11:30pm 3.6 1.1 1.8 88 0.7 SSW 4 9 2 5 1026.4 1026.5 0.0
19/11:00pm 3.8 2.1 1.7 86 0.8 CALM 0 0 0 0 1026.4 1026.5 0.0
19/10:30pm 4.6 1.7 1.6 81 1.2 SSW 6 7 3 4 1026.5 1026.6 0.0
19/10:00pm 5.8 2.9 2.4 79 1.4 SSW 7 9 4 5 1026.6 1026.7 0.0
19/09:30pm 6.6 5.0 2.3 74 1.8 CALM 0 0 0 0 1026.6 1026.7 0.0
19/09:00pm 7.2 4.5 2.9 74 1.8 SSW 6 9 3 5 1026.6 1026.7 0.0
19/08:30pm 6.5 3.3 2.8 77 1.5 SSW 9 9 5 5 1026.6 1026.7 0.0
19/08:00pm 6.0 3.1 2.6 79 1.4 SSW 7 11 4 6 1026.6 1026.7 0.0
19/07:30pm 5.1 2.6 1.4 77 1.5 SSW 4 7 2 4 1026.5 1026.6 0.0
19/07:00pm 6.8 3.9 1.7 70 2.1 SSW 6 7 3 4 1026.5 1026.6 0.0
19/06:30pm 8.0 4.7 2.3 67 2.4 SSW 9 11 5 6 1026.4 1026.5 0.0
19/06:00pm 8.2 4.9 2.2 66 2.5 SSW 9 11 5 6 1026.3 1026.4 0.0
19/05:30pm 9.1 5.7 2.0 61 3.0 SSW 9 11 5 6 1026.2 1026.3 0.0
19/05:00pm 9.2 6.2 2.3 62 2.9 SSW 7 9 4 5 1026.0 1026.1 0.0
19/04:30pm 10.9 7.5 2.0 54 3.8 SSW 9 13 5 7 1025.9 1026.0 0.0
19/04:00pm 11.0 7.2 1.8 53 3.9 SSW 11 17 6 9 1025.9 1026.0 0.0
19/03:30pm 10.7 7.8 2.5 57 3.5 SW 7 11 4 6 1026.0 1026.1 0.0
19/03:00pm 11.3 7.8 1.3 50 4.2 SSW 9 15 5 8 1026.1 1026.2 0.0
19/02:30pm 10.9 7.8 1.2 51 4.1 S 7 9 4 5 1026.1 1026.2 0.0
19/02:00pm 11.0 7.6 1.8 53 3.9 S 9 13 5 7 1026.3 1026.4 0.0
19/01:30pm 11.3 7.9 2.1 53 3.9 SSW 9 19 5 10 1026.5 1026.6 0.0
19/01:00pm 11.7 8.7 2.2 52 4.1 SSE 7 15 4 8 1026.8 1026.9 0.0
19/12:30pm 11.2 7.5 2.2 54 3.9 SSW 11 19 6 10 1027.1 1027.2 0.0
19/12:00pm 10.9 6.9 3.0 58 3.4 SW 13 17 7 9 1027.6 1027.7 0.0
19/11:30am 9.9 6.3 3.2 63 2.9 SSW 11 17 6 9 1027.8 1027.9 0.0
19/11:00am 9.2 5.5 4.6 73 2.0 SW 13 15 7 8 1028.0 1028.1 0.0
19/10:30am 8.1 5.4 5.6 84 1.1 SW 9 13 5 7 1028.2 1028.3 0.0
19/10:00am 7.1 4.9 6.2 94 0.4 SSW 7 11 4 6 1027.9 1028.0 0.0
19/09:30am 5.3 3.1 5.2 99 0.0 SW 6 9 3 5 1027.6 1027.7 0.0
19/09:00am 3.1 0.5 3.0 99 0.0 SW 6 9 3 5 1027.5 1027.6 0.0
19/08:30am 1.5 -0.6 1.4 99 0.0 SW 2 6 1 3 1027.0 1027.1 0.0
19/08:00am 0.4 -2.9 0.3 99 0.0 SW 7 9 4 5 1026.8 1026.9 0.0
19/07:30am 0.4 -2.9 0.3 99 0.0 SW 7 11 4 6 1026.6 1026.7 0.0
19/07:00am -1.0 -3.2 -1.4 97 0.1 CALM 0 0 0 0 1026.3 1026.4 0.0
19/06:30am 0.1 -1.9 -0.2 98 0.1 CALM 0 0 0 0 1025.7 1025.8 0.0
19/06:00am 0.6 -2.5 0.3 98 0.1 SW 6 9 3 5 1025.7 1025.8 0.0
19/05:30am 0.9 -2.3 0.6 98 0.1 SW 7 11 4 6 1025.3 1025.4 0.0
19/05:00am 1.3 -1.9 1.0 98 0.1 SW 7 11 4 6 1025.2 1025.3 0.0
19/04:30am 1.4 -2.1 1.0 97 0.2 WSW 9 11 5 6 1025.3 1025.4 0.0
19/04:00am 1.4 -1.6 1.0 97 0.1 WSW 6 9 3 5 1024.9 1025.0 0.0
19/03:30am 1.8 -1.7 1.4 97 0.2 WSW 9 13 5 7 1025.1 1025.2 0.0
19/03:00am 1.4 -1.6 0.8 96 0.2 WSW 6 7 3 4 1025.3 1025.4 0.0
19/02:30am 2.2 -0.9 1.6 96 0.2 WSW 7 9 4 5 1025.6 1025.7 0.0
19/02:00am 1.6 -2.0 0.9 95 0.3 WSW 9 9 5 5 1025.4 1025.5 0.0
19/01:30am 1.6 -1.6 0.6 93 0.4 WSW 7 9 4 5 1025.1 1025.2 0.0
19/01:00am 2.5 -0.6 1.5 93 0.4 WSW 7 11 4 6 1025.0 1025.1 0.0
19/12:30am 3.4 -0.3 2.2 92 0.5 WSW 11 13 6 7 1024.8 1024.9 0.0
19/12:00am 3.8 0.2 2.9 94 0.4 WSW 11 17 6 9 1024.6 1024.7 0.0
 
Date/Time
EST
Temp
°C
App
Temp
°C
Dew
Point
°C
Rel
Hum
%
Delta-T
°C
Wind Press
QNH
hPa
Press
MSL
hPa
Rain since
9am
mm
Dir  Spd
km/h
Gust
km/h
Spd
kts
Gust
kts
18/11:30pm 2.4 -0.7 1.5 94 0.3 WSW 7 9 4 5 1024.8 1024.9 0.0
18/11:00pm 2.0 -1.2 1.0 93 0.4 WSW 7 9 4 5 1024.6 1024.7 0.0
18/10:30pm 2.6 -0.3 1.4 92 0.5 WSW 6 9 3 5 1024.4 1024.5 0.0
18/10:00pm 2.7 -0.2 1.2 90 0.6 WSW 6 7 3 4 1024.4 1024.5 0.0
18/09:30pm 3.5 0.1 1.7 88 0.7 WSW 9 9 5 5 1024.3 1024.4 0.0
18/09:00pm 4.2 0.9 2.2 87 0.8 WSW 9 11 5 6 1024.3 1024.4 0.0
18/08:30pm 4.3 1.3 1.8 84 1.0 SW 7 11 4 6 1024.0 1024.1 0.0
18/08:00pm 4.9 1.1 1.7 80 1.3 SW 11 13 6 7 1023.8 1023.9 0.0
18/07:30pm 7.1 3.5 3.2 76 1.6 SW 11 15 6 8 1023.4 1023.5 0.0
18/07:00pm 7.1 3.5 3.0 75 1.7 SW 11 15 6 8 1023.2 1023.3 0.0
18/06:30pm 8.2 4.7 3.7 73 1.9 SSW 11 13 6 7 1022.8 1022.9 0.0
18/06:00pm 9.0 5.1 3.6 69 2.3 SSW 13 17 7 9 1022.3 1022.4 0.0
18/05:30pm 10.4 5.8 3.7 63 3.0 SW 17 26 9 14 1022.0 1022.1 0.0
18/05:00pm 11.7 7.3 4.9 63 3.1 SW 17 22 9 12 1021.8 1021.9 0.0
18/04:30pm 12.1 6.2 4.1 58 3.6 SW 24 33 13 18 1021.5 1021.6 0.0
18/04:00pm 12.3 6.0 4.0 57 3.7 SW 26 33 14 18 1021.2 1021.3 0.0
18/03:30pm 12.8 6.2 4.3 56 3.9 WSW 28 35 15 19 1020.9 1021.0 0.0
18/03:00pm 12.6 6.7 4.1 56 3.8 SW 24 37 13 20 1020.7 1020.8 0.0
18/02:30pm 13.9 7.4 4.8 54 4.2 WSW 28 37 15 20 1020.5 1020.6 0.0
18/02:00pm 13.1 6.9 4.5 56 3.9 SW 26 35 14 19 1020.6 1020.7 0.0
18/01:31pm 13.7 7.3 5.3 57 3.9 SW 28 46 15 25 1020.5 1020.6 0.0
18/01:30pm 13.6 7.2 5.3 57 3.9 SW 28 37 15 20 1020.6 1020.7 0.0
18/01:00pm 13.7 7.0 5.6 58 3.8 WSW 30 37 16 20 1020.7 1020.8 0.0
18/12:30pm 13.0 7.1 5.9 62 3.4 WSW 26 33 14 18 1020.9 1021.0 0.0
18/12:00pm 12.8 7.0 6.2 64 3.1 WSW 26 33 14 18 1020.9 1021.0 0.0
18/11:30am 12.6 6.6 7.1 69 2.7 WSW 28 33 15 18 1020.9 1021.0 0.0
18/11:16am 12.3 6.4 7.4 72 2.4 WSW 28 33 15 18 1020.9 1021.0 0.0
18/11:00am 12.0 7.4 8.3 78 1.8 WSW 22 30 12 16 1020.9 1021.0 0.0
18/10:47am 11.3 5.8 7.6 78 1.8 WSW 26 33 14 18 1020.9 1021.0 0.0
18/10:30am 11.1 5.6 7.6 79 1.7 W 26 32 14 17 1020.8 1020.9 0.0
18/10:00am 10.7 6.3 7.4 80 1.6 WNW 20 30 11 16 1020.7 1020.8 0.0
18/09:30am 10.0 5.5 6.9 81 1.5 WNW 20 24 11 13 1020.4 1020.5 0.0
18/09:00am 9.3 5.3 6.6 83 1.3 WNW 17 20 9 11 1020.1 1020.2 0.0
18/08:30am 8.9 4.9 6.5 85 1.1 WNW 17 24 9 13 1019.9 1020.0 0.0
18/08:00am 8.0 3.9 6.1 88 0.9 WNW 17 19 9 10 1019.6 1019.7 0.0
18/07:30am 6.0 2.3 4.6 91 0.6 NW 13 15 7 8 1019.4 1019.5 0.0
18/07:00am 6.0 2.0 4.8 92 0.5 NNW 15 19 8 10 1019.1 1019.2 0.0
18/06:30am 6.0 2.3 4.6 91 0.6 NNW 13 13 7 7 1018.8 1018.9 0.0
18/06:00am 6.3 2.6 4.6 89 0.7 NNW 13 15 7 8 1018.6 1018.7 0.0
18/05:30am 7.1 3.5 5.1 87 0.9 NNW 13 15 7 8 1018.6 1018.7 0.0
18/05:00am 8.0 4.9 5.5 84 1.1 N 11 15 6 8 1018.4 1018.5 0.0
18/04:30am 8.5 5.0 5.4 81 1.4 N 13 17 7 9 1018.5 1018.6 0.0
18/04:00am 9.0 5.2 5.6 79 1.5 N 15 20 8 11 1018.5 1018.6 0.0
18/03:30am 9.0 4.8 5.6 79 1.5 N 17 20 9 11 1018.8 1018.9 0.0
18/03:00am 9.3 5.1 5.5 77 1.7 N 17 20 9 11 1018.9 1019.0 0.0
18/02:30am 9.4 5.2 5.6 77 1.7 N 17 20 9 11 1019.0 1019.1 0.0
18/02:00am 9.6 5.3 5.4 75 1.9 N 17 24 9 13 1019.0 1019.1 0.0
18/01:30am 9.7 5.5 5.5 75 1.9 N 17 20 9 11 1019.2 1019.3 0.0
18/01:00am 9.3 5.0 5.1 75 1.9 N 17 20 9 11 1019.2 1019.3 0.0
18/12:30am 8.8 4.9 5.2 78 1.6 N 15 19 8 10 1019.6 1019.7 0.0
18/12:00am 8.1 4.8 4.7 79 1.5 N 11 13 6 7 1019.8 1019.9 0.0
 
Date/Time
EST
Temp
°C
App
Temp
°C
Dew
Point
°C
Rel
Hum
%
Delta-T
°C
Wind Press
QNH
hPa
Press
MSL
hPa
Rain since
9am
mm
Dir  Spd
km/h
Gust
km/h
Spd
kts
Gust
kts
17/11:30pm 7.6 4.2 4.0 78 1.6 N 11 13 6 7 1020.0 1020.1 0.0
17/11:00pm 9.8 6.1 4.6 70 2.3 N 13 17 7 9 1020.0 1020.1 0.0
17/10:30pm 10.3 6.3 4.7 68 2.5 N 15 19 8 10 1020.2 1020.3 0.0
17/10:00pm 10.7 6.6 4.6 66 2.7 N 15 19 8 10 1020.6 1020.7 0.0
17/09:30pm 11.2 6.8 4.7 64 3.0 N 17 22 9 12 1020.7 1020.8 0.0

Other formats

Comma delimited format used in spreadsheet applications
http://www.bom.gov.au/fwo/IDV60801/IDV60801.94843.axf

JavaScript Object Notation format (JSON) in row-major order
http://www.bom.gov.au/fwo/IDV60801/IDV60801.94843.json

Data quality

Most of these data are generated automatically and are frequently updated. Quality checks on data are not normally performed. It is possible for incorrect values to appear. Refer to information at About Latest Weather Observations and please check the disclaimer before using these data.